Time;durP1;ratioP1;P1;durP2;ratioP2;P2;SDS_P1;SDS_P2;PMS_P1;PMS_P2;Temp;Humidity;BMP_temperature;BMP_pressure;BME280_temperature;BME280_humidity;BME280_pressure;Samples;Min_cycle;Max_cycle;Signal;HPM_P1;HPM_P2
2022/04/22 00:02:22;;;;;;;9.48;7.55;;;;;;;11.31;61.18;100823.91;4950294;29;20027;-75
2022/04/22 00:04:47;;;;;;;8.48;7.53;;;;;;;11.29;61.23;100825.81;4951048;29;20027;-75
2022/04/22 00:07:14;;;;;;;9.75;7.60;;;;;;;11.24;61.55;100817.44;4951266;28;20035;-74
2022/04/22 00:09:40;;;;;;;9.95;7.88;;;;;;;11.22;61.63;100814.91;4944614;28;20077;-75
2022/04/22 00:12:06;;;;;;;10.75;8.10;;;;;;;11.19;61.73;100812.50;4950787;28;20035;-75
2022/04/22 00:14:32;;;;;;;9.38;7.72;;;;;;;11.18;61.50;100816.09;4952476;29;20027;-75
2022/04/22 00:16:57;;;;;;;11.77;8.52;;;;;;;11.14;62.04;100812.00;4950503;29;20023;-75
2022/04/22 00:19:23;;;;;;;10.15;8.20;;;;;;;11.13;62.10;100814.78;4951237;29;20356;-75
2022/04/22 00:21:53;;;;;;;9.20;8.20;;;;;;;11.09;62.02;100808.91;4950723;28;20050;-75
2022/04/22 00:24:22;;;;;;;10.68;8.57;;;;;;;11.06;62.35;100811.78;4950805;29;20035;-75
2022/04/22 00:26:48;;;;;;;10.93;8.40;;;;;;;11.04;62.53;100811.06;4945598;29;20099;-76
2022/04/22 00:29:13;;;;;;;13.77;9.10;;;;;;;10.99;62.94;100807.94;4948104;29;20399;-76
2022/04/22 00:31:39;;;;;;;11.07;8.68;;;;;;;10.95;62.75;100802.06;4948735;29;20031;-75
2022/04/22 00:34:05;;;;;;;12.57;8.73;;;;;;;10.94;63.47;100804.81;4949360;29;20027;-76
2022/04/22 00:36:30;;;;;;;10.23;9.00;;;;;;;10.92;63.30;100798.84;4949720;29;20126;-76
2022/04/22 00:38:56;;;;;;;12.38;8.75;;;;;;;10.89;63.41;100802.53;4949902;29;20055;-76
2022/04/22 00:41:22;;;;;;;12.23;9.50;;;;;;;10.86;63.41;100802.78;4949039;29;20042;-76
2022/04/22 00:43:53;;;;;;;12.18;8.95;;;;;;;10.85;63.67;100808.16;4948866;29;20746;-76
2022/04/22 00:46:18;;;;;;;13.30;9.13;;;;;;;10.81;63.82;100801.44;4945700;28;20033;-76
2022/04/22 00:48:44;;;;;;;11.38;8.77;;;;;;;10.79;64.30;100795.44;4950745;29;20028;-75
2022/04/22 00:51:10;;;;;;;12.13;8.85;;;;;;;10.77;64.17;100797.34;4950946;29;20027;-75
2022/04/22 00:53:40;;;;;;;11.50;9.05;;;;;;;10.73;64.42;100796.75;4950372;29;20031;-75
2022/04/22 00:56:08;;;;;;;14.88;8.75;;;;;;;10.67;64.80;100792.78;4949691;29;20035;-76
2022/04/22 00:58:36;;;;;;;13.07;9.02;;;;;;;10.63;64.80;100788.69;4949936;28;20062;-76
2022/04/22 01:01:02;;;;;;;12.32;9.00;;;;;;;10.62;64.98;100788.81;4949651;29;20027;-76
2022/04/22 01:03:28;;;;;;;11.10;9.38;;;;;;;10.59;65.08;100786.41;4959304;28;20029;-76
2022/04/22 01:11:27;;;;;;;12.77;8.73;;;;;;;10.52;65.71;100783.41;4950815;29;20336;-76
2022/04/22 01:13:53;;;;;;;12.18;9.20;;;;;;;10.48;66.11;100776.72;4949868;29;20030;-76
2022/04/22 01:16:18;;;;;;;14.20;9.50;;;;;;;10.46;65.86;100781.25;4950895;29;20039;-75
2022/04/22 01:18:44;;;;;;;12.07;9.70;;;;;;;10.43;66.36;100778.84;4952585;28;20030;-76
2022/04/22 01:21:09;;;;;;;11.85;9.30;;;;;;;10.41;66.47;100770.22;4946762;28;20054;-75
2022/04/22 01:23:36;;;;;;;12.05;9.38;;;;;;;10.39;66.82;100772.09;4952443;29;20015;-75
2022/04/22 01:26:01;;;;;;;10.25;9.15;;;;;;;10.36;66.49;100772.34;4953496;29;20031;-75
2022/04/22 01:28:27;;;;;;;14.70;9.93;;;;;;;10.34;66.74;100766.34;4953360;29;20542;-75
2022/04/22 01:30:57;;;;;;;11.68;9.30;;;;;;;10.30;66.80;100770.16;4953822;28;20435;-76
2022/04/22 01:33:23;;;;;;;12.32;9.63;;;;;;;10.30;66.65;100768.38;4953265;29;20424;-76
2022/04/22 01:35:48;;;;;;;12.82;10.07;;;;;;;10.29;67.04;100765.88;4952955;29;20078;-76
2022/04/22 01:38:13;;;;;;;11.88;9.43;;;;;;;10.27;67.70;100762.50;4961116;28;20396;-75
2022/04/22 01:40:40;;;;;;;13.45;10.15;;;;;;;10.25;67.58;100764.41;4951884;29;20063;-75
2022/04/22 01:43:06;;;;;;;16.38;10.05;;;;;;;10.25;67.45;100764.41;4952835;29;20058;-75
2022/04/22 01:45:32;;;;;;;14.02;10.30;;;;;;;10.23;67.97;100764.53;4953813;28;20066;-76
2022/04/22 01:47:57;;;;;;;12.63;10.40;;;;;;;10.22;68.05;100764.63;4952854;28;20452;-76
2022/04/22 01:50:23;;;;;;;13.18;10.93;;;;;;;10.20;68.46;100759.50;4953807;28;20766;-76
2022/04/22 01:52:50;;;;;;;13.20;10.43;;;;;;;10.15;68.38;100763.38;4953346;29;20035;-76
2022/04/22 01:55:15;;;;;;;12.80;10.20;;;;;;;10.16;68.66;100765.06;4950072;29;20035;-75
2022/04/22 01:57:41;;;;;;;15.77;10.63;;;;;;;10.16;68.76;100759.81;4953961;28;20510;-76
2022/04/22 02:00:08;;;;;;;13.25;11.02;;;;;;;10.13;68.83;100763.50;4952928;28;20058;-75
2022/04/22 02:02:34;;;;;;;13.88;10.70;;;;;;;10.10;69.12;100765.53;4949838;29;20079;-75
2022/04/22 02:05:00;;;;;;;14.65;11.23;;;;;;;10.02;69.51;100763.47;4952843;28;20118;-75
2022/04/22 02:07:26;;;;;;;15.07;11.32;;;;;;;10.03;69.53;100770.38;4952092;28;20391;-76
2022/04/22 02:09:51;;;;;;;12.30;10.00;;;;;;;10.02;69.41;100766.91;4951837;28;20023;-76
2022/04/22 02:12:17;;;;;;;13.25;11.05;;;;;;;10.00;69.41;100765.31;4947457;28;20031;-76
2022/04/22 02:14:43;;;;;;;14.80;11.63;;;;;;;9.97;69.73;100766.38;4968314;28;20058;-75
2022/04/22 02:17:09;;;;;;;16.90;11.75;;;;;;;9.93;69.72;100764.94;4951878;28;20034;-75
2022/04/22 02:19:34;;;;;;;13.50;10.95;;;;;;;9.93;69.76;100762.31;4952763;28;20027;-75
2022/04/22 02:21:59;;;;;;;14.82;11.10;;;;;;;9.91;69.75;100761.59;4952595;28;20050;-75
2022/04/22 02:24:26;;;;;;;13.40;11.07;;;;;;;9.89;69.44;100757.41;4951420;28;20062;-75
2022/04/22 02:29:38;;;;;;;12.23;10.93;;;;;;;9.85;70.36;100756.78;4951766;28;20058;-75
2022/04/22 02:32:05;;;;;;;14.65;11.00;;;;;;;9.82;70.68;100750.91;4951393;28;20031;-75
2022/04/22 02:34:32;;;;;;;14.25;11.55;;;;;;;9.83;70.36;100753.44;4952480;28;20039;-75
2022/04/22 02:36:57;;;;;;;14.98;11.82;;;;;;;9.81;70.75;100749.22;4951279;29;20031;-74
2022/04/22 02:39:23;;;;;;;15.85;11.77;;;;;;;9.73;70.94;100745.38;4952129;29;20049;-74
2022/04/22 02:47:16;;;;;;;16.70;11.50;;;;;;;9.72;71.58;100746.31;4948451;29;20030;-74
2022/04/22 02:49:44;;;;;;;14.15;11.60;;;;;;;9.71;71.69;100744.66;4952499;29;20034;-74
2022/04/22 02:52:12;;;;;;;16.90;12.65;;;;;;;9.72;71.16;100740.22;4951842;28;20027;-75
2022/04/22 02:54:38;;;;;;;18.83;11.90;;;;;;;9.70;71.20;100748.22;4967577;28;20062;-74
2022/04/22 02:57:04;;;;;;;14.35;12.55;;;;;;;9.66;71.55;100740.69;4952773;29;20031;-76
2022/04/22 02:59:30;;;;;;;15.35;12.73;;;;;;;9.64;71.89;100745.19;4951840;29;20043;-74
2022/04/22 03:01:56;;;;;;;15.82;12.23;;;;;;;9.61;72.04;100742.78;4952385;29;20038;-76
2022/04/22 03:04:22;;;;;;;16.23;12.25;;;;;;;9.60;72.24;100735.84;4946967;28;20035;-75
2022/04/22 03:06:47;;;;;;;17.33;12.50;;;;;;;9.57;71.73;100736.91;4951892;29;20406;-76
2022/04/22 03:09:18;;;;;;;18.13;12.55;;;;;;;9.55;72.33;100735.31;4952166;29;20034;-76
2022/04/22 03:11:43;;;;;;;14.18;12.38;;;;;;;9.55;72.24;100732.69;4950393;29;20042;-76
2022/04/22 03:14:09;;;;;;;16.33;12.77;;;;;;;9.52;72.46;100728.50;4951483;28;20022;-76
2022/04/22 03:16:35;;;;;;;15.60;12.15;;;;;;;9.50;72.54;100724.31;4952124;28;20039;-74
2022/04/22 03:19:00;;;;;;;16.35;12.32;;;;;;;9.49;71.83;100727.88;4966563;28;20447;-76
2022/04/22 03:21:26;;;;;;;14.68;12.80;;;;;;;9.48;72.67;100726.22;4944948;29;20055;-76
2022/04/22 03:23:52;;;;;;;15.32;13.18;;;;;;;9.45;72.72;100721.19;4950570;29;20066;-76
2022/04/22 03:26:18;;;;;;;18.25;13.07;;;;;;;9.42;72.60;100728.34;4982077;28;20440;-74
2022/04/22 03:28:44;;;;;;;17.50;13.13;;;;;;;9.38;73.11;100720.78;4951227;29;20038;-76
2022/04/22 03:31:09;;;;;;;18.02;12.98;;;;;;;9.36;72.87;100728.78;4951460;28;20023;-75
2022/04/22 03:33:35;;;;;;;18.60;13.93;;;;;;;9.35;73.20;100737.59;4951252;28;20712;-75
2022/04/22 03:36:00;;;;;;;17.65;13.45;;;;;;;9.31;73.40;100728.25;4950831;29;20046;-74
2022/04/22 03:38:27;;;;;;;18.48;13.77;;;;;;;9.26;73.32;100730.38;4945007;28;20035;-76
2022/04/22 03:40:53;;;;;;;15.60;13.90;;;;;;;9.25;73.91;100718.19;4948794;28;20027;-76
2022/04/22 03:43:19;;;;;;;17.38;13.98;;;;;;;9.24;74.08;100731.44;4949723;29;20074;-74
2022/04/22 03:45:45;;;;;;;17.20;13.75;;;;;;;9.21;74.17;100724.63;4950969;28;20062;-74
2022/04/22 03:48:12;;;;;;;17.35;13.55;;;;;;;9.21;74.00;100727.25;4950464;29;20069;-75
2022/04/22 03:50:42;;;;;;;17.73;13.77;;;;;;;9.18;74.34;100719.56;4982478;28;20091;-76
2022/04/22 03:53:11;;;;;;;20.55;14.52;;;;;;;9.16;74.24;100720.59;4951081;29;20046;-74
2022/04/22 03:55:37;;;;;;;16.52;14.18;;;;;;;9.15;74.65;100716.31;4945226;28;20460;-76
2022/04/22 03:58:12;;;;;;;16.52;14.10;;;;;;;9.11;74.52;100711.28;4950827;29;20059;-75
2022/04/22 04:00:42;;;;;;;19.10;14.20;;;;;;;9.09;74.59;100704.44;4980640;28;20586;-76
2022/04/22 04:03:12;;;;;;;17.05;14.40;;;;;;;9.06;74.60;100710.75;4961294;28;20095;-76
2022/04/22 04:05:40;;;;;;;19.95;15.45;;;;;;;9.06;74.80;100707.28;4981040;28;20031;-76
2022/04/22 04:08:10;;;;;;;20.65;15.48;;;;;;;9.03;75.09;100710.13;4950006;29;20090;-76
2022/04/22 04:16:04;;;;;;;18.70;15.38;;;;;;;8.99;75.24;100708.66;4950556;29;20050;-76
2022/04/22 04:18:34;;;;;;;17.55;15.18;;;;;;;8.97;75.53;100710.56;4950295;29;20440;-76
2022/04/22 04:23:45;;;;;;;20.80;15.25;;;;;;;8.94;75.85;100705.53;4950292;29;20069;-76
2022/04/22 04:26:11;;;;;;;19.65;16.10;;;;;;;8.92;75.71;100703.00;4964994;28;20480;-75
2022/04/22 04:28:38;;;;;;;20.05;15.90;;;;;;;8.90;75.67;100702.28;4943652;29;20024;-76
2022/04/22 04:31:06;;;;;;;18.67;16.00;;;;;;;8.88;76.28;100700.72;4945741;29;20034;-76
2022/04/22 04:33:32;;;;;;;23.23;16.85;;;;;;;8.87;76.22;100701.66;4950975;29;20046;-76
2022/04/22 04:35:58;;;;;;;20.48;16.27;;;;;;;8.84;76.02;100700.09;4950340;28;20019;-76
2022/04/22 04:38:26;;;;;;;22.05;16.80;;;;;;;8.83;76.73;100706.28;4949778;29;20613;-76
2022/04/22 04:40:51;;;;;;;20.58;16.83;;;;;;;8.82;76.80;100698.50;4950654;29;20028;-76
2022/04/22 04:43:18;;;;;;;21.30;16.88;;;;;;;8.81;76.31;100704.72;4965218;28;20038;-76
2022/04/22 04:45:44;;;;;;;19.70;15.73;;;;;;;8.81;76.91;100708.16;4941889;28;20027;-76
2022/04/22 04:48:09;;;;;;;24.10;16.63;;;;;;;8.81;76.95;100707.34;4948047;29;20038;-76
2022/04/22 04:50:40;;;;;;;23.83;16.95;;;;;;;8.77;77.53;100699.66;4949784;29;20046;-76
2022/04/22 04:53:07;;;;;;;21.17;17.05;;;;;;;8.80;76.93;100703.84;4952091;28;20046;-74
2022/04/22 04:55:33;;;;;;;19.55;16.67;;;;;;;8.81;76.63;100705.53;4954060;29;20038;-76
2022/04/22 04:57:58;;;;;;;23.98;17.38;;;;;;;8.79;77.45;100697.75;4954283;28;20027;-76
2022/04/22 05:00:28;;;;;;;24.23;17.70;;;;;;;8.79;77.42;100697.75;4954141;29;20054;-74
2022/04/22 05:02:55;;;;;;;22.77;17.10;;;;;;;8.78;76.89;100684.75;4948961;29;20050;-76
2022/04/22 05:05:20;;;;;;;21.25;17.40;;;;;;;8.79;77.53;100697.75;4952939;29;20027;-74
2022/04/22 05:07:51;;;;;;;23.50;17.48;;;;;;;8.81;77.81;100694.22;4954638;28;20251;-74
2022/04/22 05:10:18;;;;;;;21.60;17.33;;;;;;;8.79;77.16;100697.75;4954376;28;20402;-75
2022/04/22 05:12:50;;;;;;;22.70;17.80;;;;;;;8.79;78.01;100697.75;4953232;29;20031;-75
2022/04/22 05:15:17;;;;;;;22.55;17.92;;;;;;;8.82;78.38;100701.13;4953947;28;20035;-74
2022/04/22 05:17:44;;;;;;;23.52;17.98;;;;;;;8.79;78.34;100700.38;4954436;29;20500;-74
2022/04/22 05:20:12;;;;;;;23.83;17.73;;;;;;;8.81;78.48;100694.22;4947828;29;20051;-74
2022/04/22 05:22:38;;;;;;;24.30;17.95;;;;;;;8.83;78.56;100702.81;4946703;29;20023;-74
2022/04/22 05:25:08;;;;;;;24.30;17.85;;;;;;;8.84;78.60;100704.50;4953533;29;20102;-75
2022/04/22 05:27:36;;;;;;;21.60;16.83;;;;;;;8.85;78.25;100700.94;4953373;29;20034;-74
2022/04/22 05:32:51;;;;;;;26.65;17.48;;;;;;;8.90;78.85;100701.44;4953381;29;20075;-73
2022/04/22 05:35:19;;;;;;;23.23;18.17;;;;;;;8.90;78.88;100704.91;4949203;29;20039;-74
2022/04/22 05:37:46;;;;;;;23.77;18.48;;;;;;;8.93;78.98;100709.09;4945282;29;20542;-74
2022/04/22 05:40:16;;;;;;;28.17;18.92;;;;;;;8.92;79.49;100702.19;4953186;28;20622;-74
2022/04/22 05:42:42;;;;;;;23.60;18.33;;;;;;;8.95;79.56;100701.97;4953973;28;20031;-75
2022/04/22 05:45:10;;;;;;;26.50;18.88;;;;;;;8.96;79.13;100701.84;4953176;28;20114;-75
2022/04/22 05:47:36;;;;;;;25.58;19.58;;;;;;;8.99;79.57;100708.66;4953168;28;20027;-75
2022/04/22 05:50:06;;;;;;;25.25;19.45;;;;;;;9.03;79.90;100716.22;4953800;29;20031;-76
2022/04/22 05:52:33;;;;;;;25.42;19.92;;;;;;;9.06;79.78;100712.53;4941808;29;20078;-75
2022/04/22 05:55:06;;;;;;;25.90;19.63;;;;;;;9.09;79.27;100704.44;4948386;29;20114;-76
2022/04/22 05:57:36;;;;;;;26.55;20.48;;;;;;;9.13;80.06;100718.19;4946307;29;20513;-75
2022/04/22 06:00:07;;;;;;;28.13;21.60;;;;;;;9.15;80.06;100713.69;4952266;29;20051;-75
2022/04/22 06:02:33;;;;;;;28.98;20.25;;;;;;;9.19;79.90;100712.50;4952971;28;20043;-75
2022/04/22 06:04:58;;;;;;;28.15;21.73;;;;;;;9.23;80.39;100722.72;4967275;28;20087;-75
2022/04/22 06:07:24;;;;;;;32.10;22.48;;;;;;;9.26;79.64;100712.00;4953657;28;20070;-75
2022/04/22 06:12:33;;;;;;;30.38;22.25;;;;;;;9.35;80.48;100715.75;4947976;28;20415;-76
2022/04/22 06:15:04;;;;;;;29.23;22.42;;;;;;;9.39;80.44;100712.78;4952420;29;20023;-75
2022/04/22 06:17:30;;;;;;;30.38;22.95;;;;;;;9.43;80.11;100711.63;4951575;29;20023;-75
2022/04/22 06:19:57;;;;;;;30.88;22.00;;;;;;;9.48;80.11;100716.56;4949797;28;20049;-75
2022/04/22 06:22:23;;;;;;;29.00;23.52;;;;;;;9.53;80.59;100713.59;4951264;29;20391;-75
2022/04/22 06:24:48;;;;;;;29.25;22.75;;;;;;;9.58;80.19;100703.59;4952139;28;20443;-76
2022/04/22 06:27:21;;;;;;;29.02;22.65;;;;;;;9.62;80.14;100711.16;4951707;28;20023;-76
2022/04/22 06:29:47;;;;;;;26.90;22.02;;;;;;;9.68;80.16;100707.25;4963460;28;20031;-74
2022/04/22 06:32:13;;;;;;;31.02;23.75;;;;;;;9.74;79.69;100712.06;4959292;28;20023;-76
2022/04/22 06:34:38;;;;;;;31.27;23.67;;;;;;;9.78;79.86;100707.41;4955718;28;20030;-76
2022/04/22 06:37:04;;;;;;;30.38;23.73;;;;;;;9.85;79.70;100712.09;4950780;28;20030;-75
2022/04/22 06:45:46;;;;;;;28.38;23.55;;;;;;;9.90;79.94;100711.75;4959930;28;20031;-75
2022/04/22 06:47:43;;;;;;;28.48;23.52;;;;;;;10.10;79.40;100703.25;4960704;28;20387;-76
2022/04/22 06:50:09;;;;;;;29.60;23.90;;;;;;;10.15;79.19;100708.19;4947336;29;20023;-76
2022/04/22 06:52:34;;;;;;;31.83;24.45;;;;;;;10.19;79.14;100713.09;4951536;28;20062;-76
2022/04/22 06:55:00;;;;;;;27.58;23.05;;;;;;;10.23;78.58;100697.97;4952827;28;20110;-76
2022/04/22 06:57:26;;;;;;;29.88;23.15;;;;;;;10.28;78.64;100707.16;4980723;28;20456;-76
2022/04/22 06:59:52;;;;;;;28.35;23.73;;;;;;;10.36;78.58;100703.97;4966394;28;20414;-75
2022/04/22 07:02:17;;;;;;;30.40;23.83;;;;;;;10.43;77.86;100702.56;4950160;29;20040;-75
2022/04/22 07:04:43;;;;;;;28.95;23.48;;;;;;;10.49;78.32;100699.47;4951314;28;20050;-75
2022/04/22 07:07:09;;;;;;;27.25;22.92;;;;;;;10.55;78.10;100700.78;4951384;28;20039;-75
2022/04/22 07:09:34;;;;;;;28.02;23.02;;;;;;;10.61;78.01;100702.94;4951958;28;20114;-75
2022/04/22 07:12:01;;;;;;;29.73;23.83;;;;;;;10.64;77.54;100695.66;4951174;29;20114;-75
2022/04/22 07:14:27;;;;;;;30.10;24.35;;;;;;;10.72;77.48;100696.84;4966678;28;20031;-75
2022/04/22 07:16:52;;;;;;;27.73;23.13;;;;;;;10.75;77.24;100694.81;4951196;28;20415;-74
2022/04/22 07:19:18;;;;;;;27.60;22.80;;;;;;;10.82;76.94;100690.78;4950646;29;20023;-74
2022/04/22 07:21:43;;;;;;;28.65;22.45;;;;;;;10.88;76.57;100689.47;4951639;28;20066;-74
2022/04/22 07:24:09;;;;;;;26.10;21.83;;;;;;;10.93;76.31;100687.31;4949336;29;20765;-74
2022/04/22 07:26:40;;;;;;;26.92;22.63;;;;;;;10.98;76.30;100693.06;4950736;29;20042;-73
2022/04/22 07:29:08;;;;;;;25.52;22.27;;;;;;;11.02;75.28;100683.97;4949360;29;20027;-74
2022/04/22 07:31:34;;;;;;;25.15;21.75;;;;;;;11.08;76.19;100686.09;4944862;29;20106;-73
2022/04/22 07:34:00;;;;;;;26.60;22.88;;;;;;;11.15;76.14;100675.91;4950974;28;20111;-74
2022/04/22 07:36:25;;;;;;;24.42;21.77;;;;;;;11.24;76.01;100670.78;4951684;29;20082;-73
2022/04/22 07:38:51;;;;;;;25.50;22.10;;;;;;;11.31;75.76;100673.75;4951426;29;20118;-73
2022/04/22 07:41:18;;;;;;;24.45;21.88;;;;;;;11.38;75.30;100688.13;4950735;29;20126;-74
2022/04/22 07:46:48;;;;;;;27.27;21.20;;;;;;;11.50;73.99;100681.84;4949678;29;20639;-75
2022/04/22 07:49:14;;;;;;;26.40;21.50;;;;;;;11.54;74.03;100683.28;4951682;28;20460;-75
2022/04/22 07:51:40;;;;;;;23.00;19.90;;;;;;;11.58;72.87;100684.69;4950177;29;20094;-73
2022/04/22 07:54:07;;;;;;;28.55;20.45;;;;;;;11.64;72.76;100683.41;4950386;28;20066;-75
2022/04/22 07:56:33;;;;;;;23.77;20.23;;;;;;;11.69;72.69;100686.50;4951044;29;20554;-75
2022/04/22 07:58:58;;;;;;;24.80;18.92;;;;;;;11.78;72.82;100674.38;4950359;28;20126;-76
2022/04/22 08:01:24;;;;;;;23.90;19.42;;;;;;;11.83;72.43;100673.06;4949617;28;20046;-76
2022/04/22 08:03:50;;;;;;;24.25;19.50;;;;;;;11.95;72.44;100680.91;4951272;29;20019;-75
2022/04/22 08:06:15;;;;;;;21.05;18.85;;;;;;;11.99;71.98;100674.41;4950801;28;20024;-75
2022/04/22 08:08:40;;;;;;;21.10;18.80;;;;;;;12.07;70.62;100677.28;4950101;28;20035;-75
2022/04/22 08:11:06;;;;;;;22.20;19.17;;;;;;;12.12;71.65;100673.28;4951729;28;20439;-73
2022/04/22 08:13:32;;;;;;;25.65;18.15;;;;;;;12.15;70.37;100680.09;4949694;28;20035;-76
2022/04/22 08:15:58;;;;;;;20.48;18.10;;;;;;;12.24;70.71;100666.16;4957321;28;20031;-76
2022/04/22 08:18:23;;;;;;;21.58;17.92;;;;;;;12.30;70.58;100665.63;4950608;28;20428;-74
2022/04/22 08:20:49;;;;;;;20.48;18.25;;;;;;;12.34;70.50;100667.03;4950877;28;20062;-73
2022/04/22 08:23:16;;;;;;;21.63;18.50;;;;;;;12.38;70.21;100670.25;4962577;28;20034;-76
2022/04/22 08:25:42;;;;;;;23.92;18.75;;;;;;;12.38;70.08;100660.53;4950930;28;20031;-76
2022/04/22 08:28:07;;;;;;;19.65;17.55;;;;;;;12.45;69.37;100660.88;4964595;28;20031;-74
2022/04/22 08:30:35;;;;;;;20.88;18.60;;;;;;;12.41;69.25;100660.31;4949181;28;20058;-74
2022/04/22 08:33:01;;;;;;;23.08;18.60;;;;;;;12.47;69.24;100662.41;4949454;29;20259;-76
2022/04/22 08:35:27;;;;;;;21.88;18.27;;;;;;;12.46;69.95;100665.19;4947661;29;20110;-76
2022/04/22 08:37:53;;;;;;;20.42;18.30;;;;;;;12.49;69.34;100655.22;4947519;28;20042;-75
2022/04/22 08:40:19;;;;;;;20.60;18.42;;;;;;;12.48;69.18;100642.97;4948951;28;20031;-75
2022/04/22 08:42:46;;;;;;;22.77;19.00;;;;;;;12.52;69.42;100639.09;4947057;29;20665;-75
2022/04/22 08:45:12;;;;;;;21.60;18.75;;;;;;;12.54;69.15;100631.91;4948940;28;20039;-75
2022/04/22 08:50:27;;;;;;;21.58;18.85;;;;;;;12.68;69.41;100635.16;4949621;29;20895;-75
2022/04/22 08:53:07;;;;;;;21.08;18.85;;;;;;;12.77;69.16;100647.53;4950008;29;20023;-75
2022/04/22 08:55:34;;;;;;;20.85;18.63;;;;;;;12.88;69.61;100642.19;4950503;28;20027;-76
2022/04/22 08:58:05;;;;;;;22.08;19.77;;;;;;;13.02;69.58;100643.63;4949439;29;20039;-76
2022/04/22 09:00:34;;;;;;;21.08;18.90;;;;;;;13.15;68.84;100642.41;4950078;29;20087;-74
2022/04/22 09:03:00;;;;;;;20.30;18.25;;;;;;;13.29;68.11;100643.88;4950690;29;20046;-75
2022/04/22 09:05:26;;;;;;;19.63;17.38;;;;;;;13.43;67.43;100645.28;4947945;29;20483;-76
2022/04/22 09:07:53;;;;;;;19.85;17.75;;;;;;;13.46;66.49;100639.72;4950469;28;20035;-75
2022/04/22 09:10:22;;;;;;;20.45;17.90;;;;;;;13.52;66.25;100643.63;4950514;28;20038;-76
2022/04/22 09:12:55;;;;;;;19.98;17.20;;;;;;;13.61;65.93;100638.38;4964248;28;20488;-76
2022/04/22 09:15:23;;;;;;;21.10;17.90;;;;;;;13.68;65.85;100638.66;4950498;29;20050;-76
2022/04/22 09:17:49;;;;;;;20.60;17.20;;;;;;;13.75;65.88;100634.47;4949525;28;20031;-77
2022/04/22 09:20:15;;;;;;;19.85;17.25;;;;;;;13.77;65.27;100632.53;4950437;28;20110;-76
2022/04/22 09:22:45;;;;;;;19.77;16.13;;;;;;;13.82;65.42;100634.75;4949723;28;20510;-76
2022/04/22 09:25:10;;;;;;;19.20;17.23;;;;;;;13.90;65.00;100629.59;4948232;29;20372;-74
2022/04/22 09:27:43;;;;;;;21.67;17.02;;;;;;;13.92;64.68;100614.41;4951313;29;20102;-75
2022/04/22 09:30:11;;;;;;;20.00;16.10;;;;;;;14.00;64.80;100614.53;4957780;28;20492;-75
2022/04/22 09:32:40;;;;;;;19.05;15.52;;;;;;;14.09;63.66;100611.06;4950345;29;20391;-75
2022/04/22 09:35:10;;;;;;;15.70;13.95;;;;;;;14.15;62.27;100607.84;4949622;28;20082;-73
2022/04/22 09:43:47;;;;;;;15.23;13.45;;;;;;;14.26;61.93;100597.09;4950033;29;20081;-75
2022/04/22 09:46:32;;;;;;;15.65;14.05;;;;;;;14.26;61.57;100597.09;4950458;29;20035;-74
2022/04/22 09:48:59;;;;;;;17.92;14.05;;;;;;;14.20;60.83;100586.25;4968756;28;20027;-74
2022/04/22 09:51:27;;;;;;;16.92;14.27;;;;;;;14.20;60.98;100579.13;4953094;29;20146;-74
2022/04/22 09:54:11;;;;;;;15.80;14.18;;;;;;;14.26;61.69;100575.09;4952067;28;20042;-74
2022/04/22 09:56:41;;;;;;;18.13;13.25;;;;;;;14.22;60.62;100579.84;4941146;28;20031;-74
2022/04/22 09:59:29;;;;;;;15.05;13.30;;;;;;;14.27;61.42;100580.22;4952661;28;20047;-74
2022/04/22 10:01:55;;;;;;;16.15;13.48;;;;;;;14.31;60.80;100584.25;4941562;29;20125;-75
2022/04/22 10:04:24;;;;;;;18.55;14.43;;;;;;;14.32;60.68;100572.69;4946244;29;20176;-75
2022/04/22 10:06:50;;;;;;;14.80;13.20;;;;;;;14.33;59.90;100574.34;4944345;29;20028;-75
2022/04/22 10:09:17;;;;;;;16.02;13.93;;;;;;;14.32;59.55;100561.28;4944611;29;20403;-76
2022/04/22 10:11:47;;;;;;;13.32;12.00;;;;;;;14.32;59.11;100570.03;4946398;29;20034;-75
2022/04/22 10:14:13;;;;;;;13.20;11.80;;;;;;;14.33;58.35;100568.22;4942525;29;20521;-75
2022/04/22 10:16:38;;;;;;;12.35;11.05;;;;;;;14.29;57.82;100564.22;4946978;29;20039;-75
2022/04/22 10:19:08;;;;;;;12.68;10.95;;;;;;;14.26;57.35;100575.09;4945253;28;20111;-75
2022/04/22 10:21:33;;;;;;;13.32;11.93;;;;;;;14.20;57.67;100560.63;4947621;28;20031;-75
2022/04/22 10:23:59;;;;;;;13.00;11.70;;;;;;;14.23;58.24;100565.63;4961810;28;20530;-75
2022/04/22 10:26:27;;;;;;;14.05;12.38;;;;;;;14.24;58.56;100566.47;4946058;29;20042;-75
2022/04/22 10:28:54;;;;;;;13.85;12.15;;;;;;;14.24;58.46;100562.00;4945384;29;20080;-75
2022/04/22 10:31:22;;;;;;;14.05;12.55;;;;;;;14.25;58.74;100557.53;4953079;29;20391;-75
2022/04/22 10:33:48;;;;;;;13.93;12.43;;;;;;;14.29;59.00;100559.75;4945962;29;20023;-75
2022/04/22 10:36:15;;;;;;;18.17;12.52;;;;;;;14.33;59.14;100566.41;4950941;29;20489;-75
2022/04/22 10:38:43;;;;;;;16.88;13.48;;;;;;;14.38;59.08;100558.03;4961307;28;20078;-75
2022/04/22 10:41:18;;;;;;;15.63;13.98;;;;;;;14.43;59.08;100555.03;4967504;28;20081;-75
2022/04/22 10:49:45;;;;;;;15.27;13.73;;;;;;;14.39;58.41;100547.31;4952796;29;20369;-75
2022/04/22 10:52:19;;;;;;;16.55;13.57;;;;;;;14.37;57.93;100538.69;4951217;28;20029;-75
2022/04/22 10:54:54;;;;;;;16.27;12.90;;;;;;;14.42;57.78;100535.63;4950611;29;20561;-75
2022/04/22 10:57:27;;;;;;;14.60;12.68;;;;;;;14.40;57.61;100543.69;4945729;28;20054;-75
2022/04/22 11:00:27;;;;;;;14.98;13.02;;;;;;;14.47;57.64;100544.00;4951380;29;20079;-75
2022/04/22 11:03:04;;;;;;;14.23;12.80;;;;;;;14.47;57.27;100535.22;4966293;28;20031;-75
2022/04/22 11:05:32;;;;;;;14.77;12.93;;;;;;;14.52;56.93;100540.91;4949834;29;20042;-75
2022/04/22 11:07:57;;;;;;;14.40;12.73;;;;;;;14.56;57.07;100536.97;4951641;29;20124;-75
2022/04/22 11:10:26;;;;;;;14.68;13.18;;;;;;;14.60;57.72;100533.06;4950704;28;20560;-75
2022/04/22 11:12:57;;;;;;;17.33;13.82;;;;;;;14.64;56.68;100535.25;4952064;28;20066;-75
2022/04/22 11:15:43;;;;;;;15.63;13.07;;;;;;;14.67;57.01;100531.47;4950975;28;20082;-75
2022/04/22 11:18:10;;;;;;;16.63;13.63;;;;;;;14.66;56.05;100527.16;4949592;29;20098;-75
2022/04/22 11:20:37;;;;;;;17.83;13.25;;;;;;;14.64;56.71;100518.53;4952021;29;20103;-75
2022/04/22 11:23:04;;;;;;;14.80;13.32;;;;;;;14.69;56.63;100526.88;4951886;28;20023;-75
2022/04/22 11:25:30;;;;;;;15.75;14.00;;;;;;;14.69;56.55;100516.28;4949374;28;20039;-75
2022/04/22 11:27:56;;;;;;;18.58;13.35;;;;;;;14.73;56.86;100523.78;4951236;28;20034;-75
2022/04/22 11:30:25;;;;;;;16.10;14.20;;;;;;;14.71;56.81;100516.97;4950329;28;20031;-75
2022/04/22 11:32:56;;;;;;;17.27;13.25;;;;;;;14.73;56.84;100517.63;4951066;28;20035;-74
2022/04/22 11:35:25;;;;;;;15.95;14.18;;;;;;;14.71;56.10;100514.31;4962991;28;20038;-75
2022/04/22 11:37:59;;;;;;;16.25;14.10;;;;;;;14.70;56.54;100521.41;4982441;28;20475;-75
2022/04/22 11:40:28;;;;;;;19.10;13.95;;;;;;;14.70;56.04;100520.59;4947493;29;20027;-74
2022/04/22 11:42:56;;;;;;;16.30;14.20;;;;;;;14.65;56.36;100523.69;4940611;28;20047;-75
2022/04/22 11:45:22;;;;;;;15.90;13.68;;;;;;;14.65;56.12;100518.38;4947637;29;20506;-74
2022/04/22 11:47:47;;;;;;;15.70;13.80;;;;;;;14.66;56.00;100513.91;4939290;28;20031;-74
2022/04/22 11:50:20;;;;;;;16.83;13.52;;;;;;;14.68;56.14;100517.25;4939964;29;20024;-75
2022/04/22 11:52:56;;;;;;;16.85;13.70;;;;;;;14.69;56.16;100509.16;4943691;29;20087;-76
2022/04/22 11:55:22;;;;;;;15.95;12.98;;;;;;;14.68;56.18;100507.50;4948573;29;20035;-76
2022/04/22 11:57:48;;;;;;;15.98;14.10;;;;;;;14.72;56.69;100503.56;4946520;29;20384;-76
2022/04/22 12:06:01;;;;;;;16.20;14.48;;;;;;;14.83;56.89;100502.53;4942671;29;20129;-75
2022/04/22 12:08:27;;;;;;;16.25;14.45;;;;;;;14.89;56.94;100493.16;4981408;28;20475;-75
2022/04/22 12:10:52;;;;;;;17.98;14.38;;;;;;;14.92;56.45;100496.34;4950709;29;20027;-75
2022/04/22 12:13:18;;;;;;;17.10;14.38;;;;;;;15.02;56.57;100498.91;4948721;29;20020;-75